sensor_id;sensor_type;location;lat;lon;timestamp;pressure;altitude;pressure_sealevel;temperature;humidity
61318;BME280;47201;40.428;-8.436;2023-11-19T00:01:26;101359.03;;;15.93;100.00
61318;BME280;47201;40.428;-8.436;2023-11-19T00:03:26;101357.28;;;15.92;100.00
61318;BME280;47201;40.428;-8.436;2023-11-19T00:05:27;101354.69;;;15.90;100.00
61318;BME280;47201;40.428;-8.436;2023-11-19T00:07:28;101360.81;;;15.92;100.00
61318;BME280;47201;40.428;-8.436;2023-11-19T00:09:28;101357.31;;;15.90;100.00
61318;BME280;47201;40.428;-8.436;2023-11-19T00:11:28;101363.38;;;15.95;100.00
61318;BME280;47201;40.428;-8.436;2023-11-19T00:13:29;101360.75;;;15.95;100.00
61318;BME280;47201;40.428;-8.436;2023-11-19T00:15:29;101358.13;;;15.95;100.00
61318;BME280;47201;40.428;-8.436;2023-11-19T00:17:30;101364.28;;;15.94;100.00
61318;BME280;47201;40.428;-8.436;2023-11-19T00:19:30;101366.97;;;15.91;100.00
61318;BME280;47201;40.428;-8.436;2023-11-19T00:21:31;101360.91;;;15.86;100.00
61318;BME280;47201;40.428;-8.436;2023-11-19T00:23:33;101360.81;;;15.91;100.00
61318;BME280;47201;40.428;-8.436;2023-11-19T00:25:34;101368.72;;;15.91;100.00
61318;BME280;47201;40.428;-8.436;2023-11-19T00:27:34;101359.16;;;15.85;100.00
61318;BME280;47201;40.428;-8.436;2023-11-19T00:29:38;101359.97;;;15.89;100.00
61318;BME280;47201;40.428;-8.436;2023-11-19T00:31:39;101361.72;;;15.88;100.00
61318;BME280;47201;40.428;-8.436;2023-11-19T00:33:39;101366.13;;;15.89;100.00
61318;BME280;47201;40.428;-8.436;2023-11-19T00:35:40;101363.47;;;15.89;100.00
61318;BME280;47201;40.428;-8.436;2023-11-19T00:37:41;101353.78;;;15.91;100.00
61318;BME280;47201;40.428;-8.436;2023-11-19T00:39:43;101352.03;;;15.90;100.00
61318;BME280;47201;40.428;-8.436;2023-11-19T00:41:46;101351.19;;;15.90;100.00
61318;BME280;47201;40.428;-8.436;2023-11-19T00:43:47;101355.56;;;15.89;100.00
61318;BME280;47201;40.428;-8.436;2023-11-19T00:45:47;101347.72;;;15.86;100.00
61318;BME280;47201;40.428;-8.436;2023-11-19T00:47:50;101346.00;;;15.80;100.00
61318;BME280;47201;40.428;-8.436;2023-11-19T00:49:51;101344.28;;;15.78;100.00
61318;BME280;47201;40.428;-8.436;2023-11-19T00:51:51;101344.25;;;15.79;100.00
61318;BME280;47201;40.428;-8.436;2023-11-19T00:53:52;101343.31;;;15.82;100.00
61318;BME280;47201;40.428;-8.436;2023-11-19T00:55:53;101338.06;;;15.82;100.00
61318;BME280;47201;40.428;-8.436;2023-11-19T00:57:53;101343.31;;;15.82;100.00
61318;BME280;47201;40.428;-8.436;2023-11-19T00:59:56;101336.31;;;15.84;100.00
61318;BME280;47201;40.428;-8.436;2023-11-19T01:01:57;101337.16;;;15.86;100.00
61318;BME280;47201;40.428;-8.436;2023-11-19T01:03:57;101344.16;;;15.87;100.00
61318;BME280;47201;40.428;-8.436;2023-11-19T01:05:58;101346.78;;;15.89;100.00
61318;BME280;47201;40.428;-8.436;2023-11-19T01:08:01;101346.75;;;15.93;100.00
61318;BME280;47201;40.428;-8.436;2023-11-19T01:10:01;101334.47;;;15.89;100.00
61318;BME280;47201;40.428;-8.436;2023-11-19T01:12:03;101340.66;;;15.86;100.00
61318;BME280;47201;40.428;-8.436;2023-11-19T01:14:03;101339.84;;;15.83;100.00
61318;BME280;47201;40.428;-8.436;2023-11-19T01:16:04;101341.56;;;15.81;100.00
61318;BME280;47201;40.428;-8.436;2023-11-19T01:18:05;101334.56;;;15.80;100.00
61318;BME280;47201;40.428;-8.436;2023-11-19T01:20:09;101339.88;;;15.77;100.00
61318;BME280;47201;40.428;-8.436;2023-11-19T01:22:12;101337.25;;;15.77;100.00
61318;BME280;47201;40.428;-8.436;2023-11-19T01:24:13;101337.25;;;15.77;100.00
61318;BME280;47201;40.428;-8.436;2023-11-19T01:26:14;101332.91;;;15.73;100.00
61318;BME280;47201;40.428;-8.436;2023-11-19T01:28:15;101330.28;;;15.71;100.00
61318;BME280;47201;40.428;-8.436;2023-11-19T01:30:15;101334.69;;;15.72;100.00
61318;BME280;47201;40.428;-8.436;2023-11-19T01:32:16;101330.25;;;15.73;100.00
61318;BME280;47201;40.428;-8.436;2023-11-19T01:34:16;101328.50;;;15.73;100.00
61318;BME280;47201;40.428;-8.436;2023-11-19T01:36:17;101331.97;;;15.75;100.00
61318;BME280;47201;40.428;-8.436;2023-11-19T01:38:17;101325.00;;;15.73;100.00
61318;BME280;47201;40.428;-8.436;2023-11-19T01:40:21;101318.81;;;15.74;100.00
61318;BME280;47201;40.428;-8.436;2023-11-19T01:42:22;101320.59;;;15.71;100.00
61318;BME280;47201;40.428;-8.436;2023-11-19T01:44:25;101317.97;;;15.71;100.00
61318;BME280;47201;40.428;-8.436;2023-11-19T01:46:25;101318.88;;;15.70;100.00
61318;BME280;47201;40.428;-8.436;2023-11-19T01:48:26;101311.00;;;15.67;100.00
61318;BME280;47201;40.428;-8.436;2023-11-19T01:50:27;101309.28;;;15.65;100.00
61318;BME280;47201;40.428;-8.436;2023-11-19T01:52:28;101309.31;;;15.63;100.00
61318;BME280;47201;40.428;-8.436;2023-11-19T01:54:29;101305.75;;;15.66;100.00
61318;BME280;47201;40.428;-8.436;2023-11-19T01:56:30;101304.88;;;15.65;100.00
61318;BME280;47201;40.428;-8.436;2023-11-19T01:58:32;101311.94;;;15.63;100.00
61318;BME280;47201;40.428;-8.436;2023-11-19T02:00:32;101309.34;;;15.60;100.00
61318;BME280;47201;40.428;-8.436;2023-11-19T02:02:33;101313.72;;;15.61;100.00
61318;BME280;47201;40.428;-8.436;2023-11-19T02:04:34;101306.69;;;15.63;100.00
61318;BME280;47201;40.428;-8.436;2023-11-19T02:06:36;101304.94;;;15.62;100.00
61318;BME280;47201;40.428;-8.436;2023-11-19T02:08:38;101299.66;;;15.62;100.00
61318;BME280;47201;40.428;-8.436;2023-11-19T02:10:39;101303.09;;;15.67;100.00
61318;BME280;47201;40.428;-8.436;2023-11-19T02:12:40;101297.81;;;15.70;100.00
61318;BME280;47201;40.428;-8.436;2023-11-19T02:14:44;101292.47;;;15.74;100.00
61318;BME280;47201;40.428;-8.436;2023-11-19T02:16:45;101296.03;;;15.71;100.00
61318;BME280;47201;40.428;-8.436;2023-11-19T02:18:46;101291.69;;;15.67;100.00
61318;BME280;47201;40.428;-8.436;2023-11-19T02:20:46;101293.44;;;15.66;100.00
61318;BME280;47201;40.428;-8.436;2023-11-19T02:22:47;101295.16;;;15.69;100.00
61318;BME280;47201;40.428;-8.436;2023-11-19T02:24:49;101296.03;;;15.71;100.00
61318;BME280;47201;40.428;-8.436;2023-11-19T02:26:54;101294.25;;;15.71;100.00
61318;BME280;47201;40.428;-8.436;2023-11-19T02:28:58;101289.94;;;15.66;100.00
61318;BME280;47201;40.428;-8.436;2023-11-19T02:30:59;101287.31;;;15.64;100.00
61318;BME280;47201;40.428;-8.436;2023-11-19T02:33:00;101289.06;;;15.65;100.00
61318;BME280;47201;40.428;-8.436;2023-11-19T02:35:05;101288.19;;;15.66;100.00
61318;BME280;47201;40.428;-8.436;2023-11-19T02:37:08;101291.69;;;15.67;100.00
61318;BME280;47201;40.428;-8.436;2023-11-19T02:39:10;101286.44;;;15.65;100.00
61318;BME280;47201;40.428;-8.436;2023-11-19T02:41:13;101285.50;;;15.69;100.00
61318;BME280;47201;40.428;-8.436;2023-11-19T02:43:14;101280.22;;;15.71;100.00
61318;BME280;47201;40.428;-8.436;2023-11-19T02:45:15;101286.38;;;15.70;100.00
61318;BME280;47201;40.428;-8.436;2023-11-19T02:47:16;101285.50;;;15.69;100.00
61318;BME280;47201;40.428;-8.436;2023-11-19T02:49:17;101284.63;;;15.70;100.00
61318;BME280;47201;40.428;-8.436;2023-11-19T02:51:17;101280.22;;;15.71;100.00
61318;BME280;47201;40.428;-8.436;2023-11-19T02:53:19;101286.34;;;15.73;100.00
61318;BME280;47201;40.428;-8.436;2023-11-19T02:55:22;101282.75;;;15.77;100.00
61318;BME280;47201;40.428;-8.436;2023-11-19T02:57:24;101283.59;;;15.81;100.00
61318;BME280;47201;40.428;-8.436;2023-11-19T02:59:25;101284.44;;;15.84;100.00
61318;BME280;47201;40.428;-8.436;2023-11-19T03:01:39;101281.75;;;15.89;100.00
61318;BME280;47201;40.428;-8.436;2023-11-19T03:03:43;101276.47;;;15.89;100.00
61318;BME280;47201;40.428;-8.436;2023-11-19T03:05:49;101284.38;;;15.89;100.00
61318;BME280;47201;40.428;-8.436;2023-11-19T03:07:50;101281.75;;;15.89;100.00
61318;BME280;47201;40.428;-8.436;2023-11-19T03:09:50;101283.59;;;15.84;100.00
61318;BME280;47201;40.428;-8.436;2023-11-19T03:11:51;101282.69;;;15.82;100.00
61318;BME280;47201;40.428;-8.436;2023-11-19T03:13:51;101278.34;;;15.79;100.00
61318;BME280;47201;40.428;-8.436;2023-11-19T03:15:52;101275.75;;;15.78;100.00
61318;BME280;47201;40.428;-8.436;2023-11-19T03:17:54;101279.22;;;15.78;100.00
61318;BME280;47201;40.428;-8.436;2023-11-19T03:19:54;101279.22;;;15.78;100.00
61318;BME280;47201;40.428;-8.436;2023-11-19T03:21:55;101273.03;;;15.81;100.00
61318;BME280;47201;40.428;-8.436;2023-11-19T03:23:55;101269.53;;;15.80;100.00
61318;BME280;47201;40.428;-8.436;2023-11-19T03:25:56;101269.50;;;15.85;100.00
61318;BME280;47201;40.428;-8.436;2023-11-19T03:27:57;101269.44;;;15.88;100.00
61318;BME280;47201;40.428;-8.436;2023-11-19T03:29:58;101263.25;;;15.91;100.00
61318;BME280;47201;40.428;-8.436;2023-11-19T03:31:59;101261.53;;;15.90;100.00
61318;BME280;47201;40.428;-8.436;2023-11-19T03:33:59;101262.44;;;15.87;100.00
61318;BME280;47201;40.428;-8.436;2023-11-19T03:36:00;101258.06;;;15.84;100.00
61318;BME280;47201;40.428;-8.436;2023-11-19T03:38:00;101268.66;;;15.81;100.00
61318;BME280;47201;40.428;-8.436;2023-11-19T03:40:01;101263.41;;;15.78;100.00
61318;BME280;47201;40.428;-8.436;2023-11-19T03:42:02;101256.47;;;15.74;100.00
61318;BME280;47201;40.428;-8.436;2023-11-19T03:44:03;101255.63;;;15.70;100.00
61318;BME280;47201;40.428;-8.436;2023-11-19T03:46:04;101252.09;;;15.70;100.00
61318;BME280;47201;40.428;-8.436;2023-11-19T03:48:08;101252.13;;;15.68;100.00
61318;BME280;47201;40.428;-8.436;2023-11-19T03:50:09;101242.50;;;15.66;100.00
61318;BME280;47201;40.428;-8.436;2023-11-19T03:52:09;101249.59;;;15.62;100.00
61318;BME280;47201;40.428;-8.436;2023-11-19T03:54:10;101247.06;;;15.56;100.00
61318;BME280;47201;40.428;-8.436;2023-11-19T03:56:12;101246.25;;;15.49;100.00
61318;BME280;47201;40.428;-8.436;2023-11-19T03:58:13;101247.19;;;15.44;100.00
61318;BME280;47201;40.428;-8.436;2023-11-19T04:00:14;101252.47;;;15.44;100.00
61318;BME280;47201;40.428;-8.436;2023-11-19T04:02:15;101253.34;;;15.43;100.00
61318;BME280;47201;40.428;-8.436;2023-11-19T04:04:16;101250.75;;;15.41;100.00
61318;BME280;47201;40.428;-8.436;2023-11-19T04:06:16;101249.84;;;15.42;100.00
61318;BME280;47201;40.428;-8.436;2023-11-19T04:08:17;101247.31;;;15.34;100.00
61318;BME280;47201;40.428;-8.436;2023-11-19T04:10:17;101243.91;;;15.26;100.00
61318;BME280;47201;40.428;-8.436;2023-11-19T04:12:18;101243.06;;;15.24;100.00
61318;BME280;47201;40.428;-8.436;2023-11-19T04:14:19;101242.22;;;15.20;100.00
61318;BME280;47201;40.428;-8.436;2023-11-19T04:16:25;101236.03;;;15.23;100.00
61318;BME280;47201;40.428;-8.436;2023-11-19T04:18:26;101230.72;;;15.28;100.00
61318;BME280;47201;40.428;-8.436;2023-11-19T04:20:26;101230.72;;;15.28;100.00
61318;BME280;47201;40.428;-8.436;2023-11-19T04:22:29;101234.22;;;15.28;100.00
61318;BME280;47201;40.428;-8.436;2023-11-19T04:24:29;101224.56;;;15.27;100.00
61318;BME280;47201;40.428;-8.436;2023-11-19T04:26:30;101224.56;;;15.27;100.00
61318;BME280;47201;40.428;-8.436;2023-11-19T04:28:32;101229.00;;;15.25;100.00
61318;BME280;47201;40.428;-8.436;2023-11-19T04:30:32;101229.91;;;15.22;100.00
61318;BME280;47201;40.428;-8.436;2023-11-19T04:32:33;101229.03;;;15.22;100.00
61318;BME280;47201;40.428;-8.436;2023-11-19T04:34:33;101219.38;;;15.21;100.00
61318;BME280;47201;40.428;-8.436;2023-11-19T04:36:34;101230.84;;;15.18;100.00
61318;BME280;47201;40.428;-8.436;2023-11-19T04:38:34;101223.81;;;15.17;100.00
61318;BME280;47201;40.428;-8.436;2023-11-19T04:40:35;101224.75;;;15.12;100.00
61318;BME280;47201;40.428;-8.436;2023-11-19T04:42:38;101221.28;;;15.08;100.00
61318;BME280;47201;40.428;-8.436;2023-11-19T04:44:42;101219.59;;;15.04;100.00
61318;BME280;47201;40.428;-8.436;2023-11-19T04:46:43;101221.38;;;15.02;100.00
61318;BME280;47201;40.428;-8.436;2023-11-19T04:48:44;101215.28;;;15.00;100.00
61318;BME280;47201;40.428;-8.436;2023-11-19T04:50:44;101217.06;;;14.95;100.00
61318;BME280;47201;40.428;-8.436;2023-11-19T04:52:45;101213.59;;;14.91;100.00
61318;BME280;47201;40.428;-8.436;2023-11-19T04:54:46;101213.66;;;14.86;100.00
61318;BME280;47201;40.428;-8.436;2023-11-19T04:56:48;101214.59;;;14.81;100.00
61318;BME280;47201;40.428;-8.436;2023-11-19T04:58:49;101212.88;;;14.77;100.00
61318;BME280;47201;40.428;-8.436;2023-11-19T05:00:49;101212.94;;;14.72;100.00
61318;BME280;47201;40.428;-8.436;2023-11-19T05:02:50;101213.88;;;14.68;100.00
61318;BME280;47201;40.428;-8.436;2023-11-19T05:04:50;101214.75;;;14.62;100.00
61318;BME280;47201;40.428;-8.436;2023-11-19T05:06:51;101207.78;;;14.56;100.00
61318;BME280;47201;40.428;-8.436;2023-11-19T05:08:51;101213.06;;;14.55;100.00
61318;BME280;47201;40.428;-8.436;2023-11-19T05:10:52;101206.97;;;14.54;100.00
61318;BME280;47201;40.428;-8.436;2023-11-19T05:12:52;101204.31;;;14.53;100.00
61318;BME280;47201;40.428;-8.436;2023-11-19T05:14:53;101198.19;;;14.55;100.00
61318;BME280;47201;40.428;-8.436;2023-11-19T05:16:53;101202.56;;;14.55;100.00
61318;BME280;47201;40.428;-8.436;2023-11-19T05:18:54;101205.22;;;14.50;100.00
61318;BME280;47201;40.428;-8.436;2023-11-19T05:20:54;101201.72;;;14.50;100.00
61318;BME280;47201;40.428;-8.436;2023-11-19T05:22:55;101204.34;;;14.51;100.00
61318;BME280;47201;40.428;-8.436;2023-11-19T05:24:55;101202.56;;;14.55;100.00
61318;BME280;47201;40.428;-8.436;2023-11-19T05:26:56;101196.41;;;14.56;100.00
61318;BME280;47201;40.428;-8.436;2023-11-19T05:28:58;101204.31;;;14.56;100.00
61318;BME280;47201;40.428;-8.436;2023-11-19T05:30:58;101200.81;;;14.54;100.00
61318;BME280;47201;40.428;-8.436;2023-11-19T05:32:59;101193.81;;;14.54;100.00
61318;BME280;47201;40.428;-8.436;2023-11-19T05:35:01;101191.16;;;14.53;100.00
61318;BME280;47201;40.428;-8.436;2023-11-19T05:37:02;101192.94;;;14.52;100.00
61318;BME280;47201;40.428;-8.436;2023-11-19T05:39:02;101195.53;;;14.54;100.00
61318;BME280;47201;40.428;-8.436;2023-11-19T05:41:05;101192.13;;;14.47;100.00
61318;BME280;47201;40.428;-8.436;2023-11-19T05:43:05;101199.97;;;14.49;100.00
61318;BME280;47201;40.428;-8.436;2023-11-19T05:45:06;101199.09;;;14.50;100.00
61318;BME280;47201;40.428;-8.436;2023-11-19T05:47:08;101186.81;;;14.50;100.00
61318;BME280;47201;40.428;-8.436;2023-11-19T05:49:08;101194.69;;;14.53;100.00
61318;BME280;47201;40.428;-8.436;2023-11-19T05:51:09;101199.06;;;14.53;100.00
61318;BME280;47201;40.428;-8.436;2023-11-19T05:53:09;101201.69;;;14.54;100.00
61318;BME280;47201;40.428;-8.436;2023-11-19T05:55:10;101199.03;;;14.56;100.00
61318;BME280;47201;40.428;-8.436;2023-11-19T05:57:11;101194.69;;;14.53;100.00
61318;BME280;47201;40.428;-8.436;2023-11-19T05:59:14;101194.63;;;14.56;100.00
61318;BME280;47201;40.428;-8.436;2023-11-19T06:01:17;101199.06;;;14.53;100.00
61318;BME280;47201;40.428;-8.436;2023-11-19T06:03:18;101203.44;;;14.55;100.00
61318;BME280;47201;40.428;-8.436;2023-11-19T06:05:18;101194.66;;;14.55;100.00
61318;BME280;47201;40.428;-8.436;2023-11-19T06:07:19;101195.53;;;14.55;100.00
61318;BME280;47201;40.428;-8.436;2023-11-19T06:09:20;101185.88;;;14.56;100.00
61318;BME280;47201;40.428;-8.436;2023-11-19T06:11:21;101199.06;;;14.53;100.00
61318;BME280;47201;40.428;-8.436;2023-11-19T06:13:21;101192.03;;;14.55;100.00
61318;BME280;47201;40.428;-8.436;2023-11-19T06:15:22;101193.78;;;14.53;100.00
61318;BME280;47201;40.428;-8.436;2023-11-19T06:17:22;101196.44;;;14.54;100.00
61318;BME280;47201;40.428;-8.436;2023-11-19T06:19:23;101192.06;;;14.52;100.00
61318;BME280;47201;40.428;-8.436;2023-11-19T06:21:25;101191.16;;;14.54;100.00
61318;BME280;47201;40.428;-8.436;2023-11-19T06:23:25;101183.25;;;14.56;100.00
61318;BME280;47201;40.428;-8.436;2023-11-19T06:25:26;101189.41;;;14.55;100.00
61318;BME280;47201;40.428;-8.436;2023-11-19T06:27:26;101178.00;;;14.56;100.00
61318;BME280;47201;40.428;-8.436;2023-11-19T06:29:27;101193.78;;;14.56;100.00
61318;BME280;47201;40.428;-8.436;2023-11-19T06:31:27;101186.75;;;14.55;100.00
61318;BME280;47201;40.428;-8.436;2023-11-19T06:33:28;101181.56;;;14.49;100.00
61318;BME280;47201;40.428;-8.436;2023-11-19T06:35:28;101189.47;;;14.49;100.00
61318;BME280;47201;40.428;-8.436;2023-11-19T06:37:39;101187.75;;;14.46;100.00
61318;BME280;47201;40.428;-8.436;2023-11-19T06:39:40;101188.59;;;14.47;100.00
61318;BME280;47201;40.428;-8.436;2023-11-19T06:41:44;101192.94;;;14.49;100.00
61318;BME280;47201;40.428;-8.436;2023-11-19T06:43:45;101191.19;;;14.51;100.00
61318;BME280;47201;40.428;-8.436;2023-11-19T06:45:45;101181.56;;;14.50;100.00
61318;BME280;47201;40.428;-8.436;2023-11-19T06:47:46;101193.78;;;14.53;100.00
61318;BME280;47201;40.428;-8.436;2023-11-19T06:49:46;101184.22;;;14.47;100.00
61318;BME280;47201;40.428;-8.436;2023-11-19T06:51:47;101184.22;;;14.47;100.00
61318;BME280;47201;40.428;-8.436;2023-11-19T06:53:47;101185.09;;;14.48;100.00
61318;BME280;47201;40.428;-8.436;2023-11-19T06:55:48;101180.75;;;14.43;100.00
61318;BME280;47201;40.428;-8.436;2023-11-19T06:57:48;101177.25;;;14.41;100.00
61318;BME280;47201;40.428;-8.436;2023-11-19T06:59:49;101181.63;;;14.42;100.00
61318;BME280;47201;40.428;-8.436;2023-11-19T07:01:49;101171.13;;;14.42;100.00
61318;BME280;47201;40.428;-8.436;2023-11-19T07:03:50;101177.28;;;14.40;100.00
61318;BME280;47201;40.428;-8.436;2023-11-19T07:05:51;101190.44;;;14.37;100.00
61318;BME280;47201;40.428;-8.436;2023-11-19T07:07:52;101188.72;;;14.36;100.00
61318;BME280;47201;40.428;-8.436;2023-11-19T07:09:52;101188.72;;;14.36;100.00
61318;BME280;47201;40.428;-8.436;2023-11-19T07:11:53;101188.69;;;14.39;100.00
61318;BME280;47201;40.428;-8.436;2023-11-19T07:13:53;101195.69;;;14.38;100.00
61318;BME280;47201;40.428;-8.436;2023-11-19T07:15:55;101193.09;;;14.34;100.00
61318;BME280;47201;40.428;-8.436;2023-11-19T07:17:56;101201.91;;;14.33;100.00
61318;BME280;47201;40.428;-8.436;2023-11-19T07:19:58;101198.38;;;14.32;100.00
61318;BME280;47201;40.428;-8.436;2023-11-19T07:22:00;101194.00;;;14.34;100.00
61318;BME280;47201;40.428;-8.436;2023-11-19T07:24:00;101200.16;;;14.28;100.00
61318;BME280;47201;40.428;-8.436;2023-11-19T07:26:01;101194.00;;;14.31;100.00
61318;BME280;47201;40.428;-8.436;2023-11-19T07:28:01;101191.44;;;14.25;100.00
61318;BME280;47201;40.428;-8.436;2023-11-19T07:30:05;101199.31;;;14.25;100.00
61318;BME280;47201;40.428;-8.436;2023-11-19T07:32:07;101197.63;;;14.21;100.00
61318;BME280;47201;40.428;-8.436;2023-11-19T07:34:08;101202.84;;;14.24;100.00
61318;BME280;47201;40.428;-8.436;2023-11-19T07:36:09;101202.91;;;14.18;100.00
61318;BME280;47201;40.428;-8.436;2023-11-19T07:38:10;101208.09;;;14.24;100.00
61318;BME280;47201;40.428;-8.436;2023-11-19T07:40:11;101205.50;;;14.19;100.00
61318;BME280;47201;40.428;-8.436;2023-11-19T07:42:11;101210.72;;;14.27;100.00
61318;BME280;47201;40.428;-8.436;2023-11-19T07:44:12;101216.81;;;14.27;100.00
61318;BME280;47201;40.428;-8.436;2023-11-19T07:46:13;101217.75;;;14.23;100.00
61318;BME280;47201;40.428;-8.436;2023-11-19T07:48:13;101211.63;;;14.21;100.00
61318;BME280;47201;40.428;-8.436;2023-11-19T07:50:15;101218.63;;;14.25;100.00
61318;BME280;47201;40.428;-8.436;2023-11-19T07:52:17;101221.19;;;14.30;100.00
61318;BME280;47201;40.428;-8.436;2023-11-19T07:54:17;101230.88;;;14.28;100.00
61318;BME280;47201;40.428;-8.436;2023-11-19T07:56:18;101229.97;;;14.31;100.00
61318;BME280;47201;40.428;-8.436;2023-11-19T07:58:18;101229.13;;;14.24;100.00
61318;BME280;47201;40.428;-8.436;2023-11-19T08:00:19;101230.84;;;14.26;100.00
61318;BME280;47201;40.428;-8.436;2023-11-19T08:02:20;101231.78;;;14.22;100.00
61318;BME280;47201;40.428;-8.436;2023-11-19T08:04:20;101231.75;;;14.27;100.00
61318;BME280;47201;40.428;-8.436;2023-11-19T08:06:21;101230.75;;;14.37;100.00
61318;BME280;47201;40.428;-8.436;2023-11-19T08:08:21;101234.31;;;14.36;100.00
61318;BME280;47201;40.428;-8.436;2023-11-19T08:10:22;101229.94;;;14.32;100.00
61318;BME280;47201;40.428;-8.436;2023-11-19T08:12:22;101229.13;;;14.27;100.00
61318;BME280;47201;40.428;-8.436;2023-11-19T08:14:23;101239.63;;;14.27;100.00
61318;BME280;47201;40.428;-8.436;2023-11-19T08:16:24;101233.41;;;14.36;100.00
61318;BME280;47201;40.428;-8.436;2023-11-19T08:18:25;101237.69;;;14.51;100.00
61318;BME280;47201;40.428;-8.436;2023-11-19T08:20:25;101244.63;;;14.58;100.00
61318;BME280;47201;40.428;-8.436;2023-11-19T08:22:26;101241.00;;;14.71;100.00
61318;BME280;47201;40.428;-8.436;2023-11-19T08:24:26;101242.44;;;15.02;100.00
61318;BME280;47201;40.428;-8.436;2023-11-19T08:26:27;101242.25;;;15.17;100.00
61318;BME280;47201;40.428;-8.436;2023-11-19T08:28:27;101246.41;;;15.37;100.00
61318;BME280;47201;40.428;-8.436;2023-11-19T08:30:28;101247.25;;;15.41;100.00
61318;BME280;47201;40.428;-8.436;2023-11-19T08:32:28;101247.16;;;15.47;100.00
61318;BME280;47201;40.428;-8.436;2023-11-19T08:34:29;101250.75;;;15.38;100.00
61318;BME280;47201;40.428;-8.436;2023-11-19T08:36:29;101246.34;;;15.43;100.00
61318;BME280;47201;40.428;-8.436;2023-11-19T08:38:31;101247.22;;;15.42;100.00
61318;BME280;47201;40.428;-8.436;2023-11-19T08:40:32;101248.91;;;15.46;100.00
61318;BME280;47201;40.428;-8.436;2023-11-19T08:42:32;101259.59;;;15.35;100.00
61318;BME280;47201;40.428;-8.436;2023-11-19T08:44:33;101255.16;;;15.39;100.00
61318;BME280;47201;40.428;-8.436;2023-11-19T08:46:33;101259.56;;;15.38;100.00
61318;BME280;47201;40.428;-8.436;2023-11-19T08:48:34;101257.81;;;15.37;100.00
61318;BME280;47201;40.428;-8.436;2023-11-19T08:50:34;101260.41;;;15.39;100.00
61318;BME280;47201;40.428;-8.436;2023-11-19T08:52:35;101265.53;;;15.50;100.00
61318;BME280;47201;40.428;-8.436;2023-11-19T08:54:36;101271.56;;;15.61;100.00
61318;BME280;47201;40.428;-8.436;2023-11-19T08:56:36;101266.03;;;15.80;100.00
61318;BME280;47201;40.428;-8.436;2023-11-19T08:58:39;101266.25;;;16.25;100.00
61318;BME280;47201;40.428;-8.436;2023-11-19T09:00:39;101260.50;;;17.05;100.00
61318;BME280;47201;40.428;-8.436;2023-11-19T09:02:40;101271.16;;;18.90;100.00
61318;BME280;47201;40.428;-8.436;2023-11-19T09:04:41;101272.41;;;20.55;97.37
61318;BME280;47201;40.428;-8.436;2023-11-19T09:06:41;101285.72;;;22.21;86.45
61318;BME280;47201;40.428;-8.436;2023-11-19T09:08:42;101286.22;;;23.53;79.89
61318;BME280;47201;40.428;-8.436;2023-11-19T09:10:43;101292.03;;;25.07;78.32
61318;BME280;47201;40.428;-8.436;2023-11-19T09:12:43;101296.31;;;26.08;77.00
61318;BME280;47201;40.428;-8.436;2023-11-19T09:14:44;101296.94;;;26.89;76.61
61318;BME280;47201;40.428;-8.436;2023-11-19T09:16:45;101296.31;;;27.14;78.32
61318;BME280;47201;40.428;-8.436;2023-11-19T09:18:46;101302.69;;;26.83;78.70
61318;BME280;47201;40.428;-8.436;2023-11-19T09:20:46;101300.88;;;25.90;80.33
61318;BME280;47201;40.428;-8.436;2023-11-19T09:22:47;101297.84;;;25.15;81.89
61318;BME280;47201;40.428;-8.436;2023-11-19T09:24:48;101290.38;;;25.04;82.21
61318;BME280;47201;40.428;-8.436;2023-11-19T09:26:48;101297.78;;;25.66;81.29
61318;BME280;47201;40.428;-8.436;2023-11-19T09:28:49;101295.50;;;26.53;79.56
61318;BME280;47201;40.428;-8.436;2023-11-19T09:30:49;101289.78;;;27.04;79.20
61318;BME280;47201;40.428;-8.436;2023-11-19T09:32:50;101297.59;;;27.79;77.97
61318;BME280;47201;40.428;-8.436;2023-11-19T09:34:51;101296.75;;;28.74;78.16
61318;BME280;47201;40.428;-8.436;2023-11-19T09:36:51;101308.25;;;29.27;79.40
61318;BME280;47201;40.428;-8.436;2023-11-19T09:38:51;101308.38;;;29.39;80.16
61318;BME280;47201;40.428;-8.436;2023-11-19T09:40:52;101304.03;;;29.49;80.71
61318;BME280;47201;40.428;-8.436;2023-11-19T09:42:53;101302.25;;;29.74;81.18
61318;BME280;47201;40.428;-8.436;2023-11-19T09:44:54;101303.19;;;29.49;81.01
61318;BME280;47201;40.428;-8.436;2023-11-19T09:46:56;101299.00;;;29.82;81.69
61318;BME280;47201;40.428;-8.436;2023-11-19T09:48:58;101301.88;;;30.16;81.33
61318;BME280;47201;40.428;-8.436;2023-11-19T09:51:00;101300.25;;;30.37;81.01
61318;BME280;47201;40.428;-8.436;2023-11-19T09:53:01;101303.84;;;30.14;81.48
61318;BME280;47201;40.428;-8.436;2023-11-19T09:55:01;101298.81;;;30.92;80.70
61318;BME280;47201;40.428;-8.436;2023-11-19T09:57:02;101304.38;;;30.54;81.92
61318;BME280;47201;40.428;-8.436;2023-11-19T09:59:04;101309.44;;;30.35;82.27
61318;BME280;47201;40.428;-8.436;2023-11-19T10:01:05;101296.72;;;30.48;81.85
61318;BME280;47201;40.428;-8.436;2023-11-19T10:03:12;101300.56;;;31.04;81.46
61318;BME280;47201;40.428;-8.436;2023-11-19T10:05:13;101305.28;;;30.66;81.89
61318;BME280;47201;40.428;-8.436;2023-11-19T10:07:15;101299.59;;;30.58;81.88
61318;BME280;47201;40.428;-8.436;2023-11-19T10:09:15;101301.13;;;30.74;81.95
61318;BME280;47201;40.428;-8.436;2023-11-19T10:11:16;101300.66;;;30.44;82.68
61318;BME280;47201;40.428;-8.436;2023-11-19T10:13:17;101305.19;;;30.79;82.01
61318;BME280;47201;40.428;-8.436;2023-11-19T10:15:21;101304.97;;;31.05;81.47
61318;BME280;47201;40.428;-8.436;2023-11-19T10:17:27;101302.63;;;31.80;81.13